Time;durP1;ratioP1;P1;durP2;ratioP2;P2;SDS_P1;SDS_P2;PMS_P1;PMS_P2;Temp;Humidity;BMP_temperature;BMP_pressure;BME280_temperature;BME280_humidity;BME280_pressure;Samples;Min_cycle;Max_cycle;Signal;HPM_P1;HPM_P2
2021/08/27 00:02:17;;;;;;;3.83;2.13;;;17.20;99.90;;;;;;5084741;28;20617;-80
2021/08/27 00:04:46;;;;;;;2.87;1.77;;;17.20;99.90;;;;;;5076565;28;20461;-82
2021/08/27 00:07:14;;;;;;;2.77;1.63;;;17.20;99.90;;;;;;5079119;28;20454;-81
2021/08/27 00:09:42;;;;;;;2.37;1.60;;;17.20;99.90;;;;;;5065754;28;20446;-81
2021/08/27 00:12:12;;;;;;;4.57;1.90;;;17.20;99.90;;;;;;5075047;28;20867;-81
2021/08/27 00:14:40;;;;;;;3.80;1.70;;;17.20;99.90;;;;;;5078062;28;20596;-81
2021/08/27 00:17:08;;;;;;;2.00;1.80;;;17.20;99.90;;;;;;5071445;28;20466;-80
2021/08/27 00:19:36;;;;;;;2.50;1.50;;;17.20;99.90;;;;;;5050496;28;20462;-80
2021/08/27 00:22:05;;;;;;;4.20;2.00;;;17.20;99.90;;;;;;5065495;28;20476;-80
2021/08/27 00:24:33;;;;;;;2.83;1.83;;;17.20;99.90;;;;;;5082654;28;20465;-79
2021/08/27 00:27:01;;;;;;;3.90;2.23;;;17.20;99.90;;;;;;5069870;28;20477;-80
2021/08/27 00:29:30;;;;;;;2.40;2.20;;;17.20;99.90;;;;;;5077094;28;20457;-80
2021/08/27 00:31:58;;;;;;;3.07;1.70;;;17.10;99.90;;;;;;5077686;28;20449;-80
2021/08/27 00:34:27;;;;;;;3.63;2.00;;;17.10;99.90;;;;;;5068574;28;20497;-80
2021/08/27 00:36:55;;;;;;;3.67;1.53;;;17.20;99.90;;;;;;5069981;28;20458;-79
2021/08/27 00:39:23;;;;;;;1.70;1.60;;;17.10;99.90;;;;;;5068291;28;20457;-79
2021/08/27 00:41:51;;;;;;;2.90;1.80;;;17.10;99.90;;;;;;5064759;28;20813;-79
2021/08/27 00:44:19;;;;;;;1.83;1.60;;;17.10;99.90;;;;;;5070114;28;20535;-80
2021/08/27 00:46:49;;;;;;;4.67;1.90;;;17.20;99.90;;;;;;5071313;28;20519;-80
2021/08/27 00:49:17;;;;;;;8.13;2.80;;;17.20;99.90;;;;;;5079696;28;20474;-81
2021/08/27 00:51:45;;;;;;;1.93;1.53;;;17.20;99.90;;;;;;5072400;28;20461;-81
2021/08/27 00:54:14;;;;;;;3.50;1.67;;;17.20;99.90;;;;;;5077214;28;20484;-81
2021/08/27 00:56:42;;;;;;;1.90;1.50;;;17.20;99.90;;;;;;5073697;28;20827;-81
2021/08/27 00:59:11;;;;;;;2.80;1.73;;;17.20;99.90;;;;;;5072631;28;20459;-81
2021/08/27 01:01:39;;;;;;;2.07;1.50;;;17.20;99.90;;;;;;5073887;28;20880;-81
2021/08/27 01:04:10;;;;;;;5.37;3.10;;;17.20;99.90;;;;;;5074951;28;21276;-80
2021/08/27 01:06:41;;;;;;;1.70;1.40;;;17.30;99.90;;;;;;5084095;28;20453;-79
2021/08/27 01:09:18;;;;;;;2.40;1.57;;;17.20;99.90;;;;;;5081249;28;20950;-79
2021/08/27 01:11:50;;;;;;;2.07;1.80;;;17.20;99.90;;;;;;5071772;28;20462;-79
2021/08/27 01:14:26;;;;;;;4.93;2.00;;;17.20;99.90;;;;;;5083300;28;20465;-80
2021/08/27 01:16:58;;;;;;;2.57;1.83;;;17.20;99.90;;;;;;5080086;28;20507;-81
2021/08/27 01:20:02;;;;;;;4.63;2.03;;;17.20;99.90;;;;;;5067698;28;20469;-80
2021/08/27 01:22:54;;;;;;;3.10;1.53;;;17.20;99.90;;;;;;5068837;28;20515;-81
2021/08/27 01:25:24;;;;;;;2.97;2.00;;;17.20;99.90;;;;;;5076429;28;20513;-83
2021/08/27 01:27:55;;;;;;;2.87;2.10;;;17.20;99.90;;;;;;5077547;28;20454;-80
2021/08/27 01:30:34;;;;;;;2.80;2.33;;;17.20;99.90;;;;;;5077007;28;20466;-81
2021/08/27 01:33:08;;;;;;;3.47;1.90;;;17.20;99.90;;;;;;5076779;28;21001;-78
2021/08/27 01:35:39;;;;;;;2.33;1.63;;;17.20;99.90;;;;;;5063239;28;20510;-80
2021/08/27 01:38:11;;;;;;;2.13;1.70;;;17.20;99.90;;;;;;5086888;28;20448;-80
2021/08/27 01:40:41;;;;;;;3.93;2.03;;;17.20;99.90;;;;;;5077112;28;20468;-79
2021/08/27 01:43:12;;;;;;;2.30;1.67;;;17.20;99.90;;;;;;5062346;28;20776;-80
2021/08/27 01:45:43;;;;;;;2.30;2.10;;;17.20;99.90;;;;;;5061945;28;20445;-80
2021/08/27 01:48:12;;;;;;;3.27;1.50;;;17.20;99.90;;;;;;5086086;28;20446;-80
2021/08/27 01:50:43;;;;;;;3.13;2.03;;;17.20;99.90;;;;;;5076816;28;20449;-81
2021/08/27 01:53:11;;;;;;;2.90;2.30;;;17.20;99.90;;;;;;5061157;28;20467;-80
2021/08/27 01:55:40;;;;;;;2.63;1.60;;;17.20;99.90;;;;;;5075782;28;20478;-80
2021/08/27 01:58:10;;;;;;;3.83;1.80;;;17.10;99.90;;;;;;5069981;28;20505;-81
2021/08/27 02:00:39;;;;;;;2.53;2.13;;;17.10;99.90;;;;;;5076368;28;20469;-80
2021/08/27 02:03:08;;;;;;;3.67;1.63;;;17.20;99.90;;;;;;5068038;28;20466;-80
2021/08/27 02:05:40;;;;;;;4.43;2.13;;;17.20;99.90;;;;;;5076190;28;21038;-80
2021/08/27 02:08:10;;;;;;;2.50;2.10;;;17.20;99.90;;;;;;5071567;28;20877;-80
2021/08/27 02:10:39;;;;;;;2.43;2.23;;;17.20;99.90;;;;;;5075205;28;20446;-80
2021/08/27 02:13:08;;;;;;;1.80;1.47;;;17.20;99.90;;;;;;5075823;28;20446;-81
2021/08/27 02:15:37;;;;;;;3.00;1.90;;;17.20;99.90;;;;;;5061868;28;20543;-81
2021/08/27 02:18:06;;;;;;;4.00;1.63;;;17.30;99.90;;;;;;5074157;28;20449;-81
2021/08/27 02:20:35;;;;;;;8.80;2.17;;;17.30;99.90;;;;;;5073695;28;20465;-82
2021/08/27 02:23:06;;;;;;;1.83;1.60;;;17.20;99.90;;;;;;5071316;28;20478;-82
2021/08/27 02:25:37;;;;;;;4.73;1.53;;;17.20;99.90;;;;;;5056431;28;20453;-81
2021/08/27 02:28:06;;;;;;;4.60;1.70;;;17.20;99.90;;;;;;5071674;28;20523;-81
2021/08/27 02:30:35;;;;;;;2.60;1.80;;;17.20;99.90;;;;;;5076043;28;20459;-82
2021/08/27 02:33:08;;;;;;;3.00;2.03;;;17.20;99.90;;;;;;5072710;28;20443;-81
2021/08/27 02:35:37;;;;;;;2.30;1.93;;;17.20;99.90;;;;;;5067491;28;20479;-81
2021/08/27 02:38:09;;;;;;;3.60;2.20;;;17.30;99.90;;;;;;5075457;28;20968;-81
2021/08/27 02:40:38;;;;;;;6.03;1.83;;;17.30;99.90;;;;;;5069448;28;21036;-81
2021/08/27 02:43:07;;;;;;;2.00;1.80;;;17.30;99.90;;;;;;5072259;28;20508;-80
2021/08/27 02:45:35;;;;;;;4.23;1.80;;;17.40;99.90;;;;;;5074776;28;20465;-80
2021/08/27 02:48:04;;;;;;;1.97;1.77;;;17.30;99.90;;;;;;5082361;28;20485;-80
2021/08/27 02:50:38;;;;;;;2.30;1.63;;;17.30;99.90;;;;;;5069882;28;20449;-80
2021/08/27 02:53:10;;;;;;;3.57;2.00;;;17.30;99.90;;;;;;5065842;28;20450;-81
2021/08/27 02:55:44;;;;;;;4.40;2.03;;;17.30;99.90;;;;;;5074386;28;21236;-80
2021/08/27 02:58:16;;;;;;;3.33;2.30;;;17.30;1.00;;;;;;5073823;28;20477;-80
2021/08/27 03:00:52;;;;;;;7.53;3.00;;;17.10;1.00;;;;;;5074589;28;20457;-80
2021/08/27 03:03:23;;;;;;;3.03;2.20;;;17.30;1.00;;;;;;5069539;28;20895;-82
2021/08/27 03:05:57;;;;;;;3.47;2.37;;;17.30;1.00;;;;;;5073932;28;20527;-80
2021/08/27 03:08:25;;;;;;;4.50;2.77;;;17.30;1.00;;;;;;5075416;28;20980;-80
2021/08/27 03:11:04;;;;;;;5.23;3.10;;;17.30;1.00;;;;;;5078073;28;20875;-81
2021/08/27 03:13:40;;;;;;;5.97;3.53;;;17.40;1.00;;;;;;5076607;28;20472;-81
2021/08/27 03:16:11;;;;;;;3.73;2.80;;;17.40;1.00;;;;;;5076860;28;20449;-80
2021/08/27 03:18:45;;;;;;;4.90;3.10;;;17.40;10.30;;;;;;5070289;28;20541;-83
2021/08/27 03:21:18;;;;;;;4.30;3.20;;;17.30;99.90;;;;;;5083490;28;20533;-82
2021/08/27 03:23:49;;;;;;;4.90;4.40;;;17.30;90.30;;;;;;5075116;28;20495;-82
2021/08/27 03:26:23;;;;;;;6.00;4.43;;;17.30;59.40;;;;;;5070585;28;20966;-83
2021/08/27 03:28:58;;;;;;;5.17;3.67;;;17.30;57.70;;;;;;5075062;28;20456;-82
2021/08/27 03:31:28;;;;;;;5.47;3.90;;;17.30;99.90;;;;;;5070593;28;20461;-83
2021/08/27 03:33:58;;;;;;;4.30;3.77;;;17.30;99.90;;;;;;5058092;28;20474;-82
2021/08/27 03:36:27;;;;;;;5.13;3.30;;;17.30;99.90;;;;;;5051695;28;20445;-83
2021/08/27 03:38:56;;;;;;;5.03;4.07;;;17.30;99.90;;;;;;5080543;28;20466;-81
2021/08/27 03:41:29;;;;;;;4.50;3.40;;;17.30;99.90;;;;;;5086498;28;20464;-82
2021/08/27 03:43:59;;;;;;;7.03;3.60;;;17.30;99.90;;;;;;5077038;28;20497;-82
2021/08/27 03:46:28;;;;;;;5.03;4.57;;;17.30;99.90;;;;;;5076480;28;20468;-82
2021/08/27 03:48:57;;;;;;;6.00;4.07;;;17.30;99.90;;;;;;5067900;28;20679;-80
2021/08/27 03:51:27;;;;;;;4.13;3.50;;;17.30;99.90;;;;;;5082219;28;20496;-80
2021/08/27 03:54:16;;;;;;;6.80;4.57;;;17.30;99.90;;;;;;5073934;28;20485;-80
2021/08/27 03:56:45;;;;;;;6.70;5.37;;;17.40;99.90;;;;;;5074206;28;20456;-81
2021/08/27 03:59:14;;;;;;;6.00;4.40;;;17.30;99.90;;;;;;5071901;28;21226;-80
2021/08/27 04:01:43;;;;;;;4.93;3.60;;;17.30;99.90;;;;;;5060139;28;20472;-81
2021/08/27 04:04:19;;;;;;;4.50;4.10;;;17.30;37.80;;;;;;5081261;28;20523;-80
2021/08/27 04:06:54;;;;;;;4.07;3.67;;;17.30;66.10;;;;;;5082523;28;20480;-80
2021/08/27 04:09:23;;;;;;;3.60;3.30;;;17.30;11.80;;;;;;5079896;28;20545;-80
2021/08/27 04:11:53;;;;;;;4.00;3.57;;;17.30;1.00;;;;;;5071834;28;20543;-80
2021/08/27 04:14:21;;;;;;;2.90;2.60;;;17.30;1.00;;;;;;5071253;28;20552;-80
2021/08/27 04:16:49;;;;;;;2.60;2.40;;;17.30;1.00;;;;;;5085121;28;20459;-80
2021/08/27 04:19:17;;;;;;;3.50;3.20;;;17.30;1.00;;;;;;5085536;28;20914;-80
2021/08/27 04:21:46;;;;;;;5.50;2.77;;;17.30;1.00;;;;;;5088316;28;20951;-80
2021/08/27 04:24:14;;;;;;;3.43;2.93;;;17.30;1.00;;;;;;5071731;28;20543;-80
2021/08/27 04:26:42;;;;;;;4.10;2.97;;;17.20;32.10;;;;;;5074300;28;20447;-79
2021/08/27 04:29:13;;;;;;;4.10;2.67;;;17.20;60.30;;;;;;5074870;28;20472;-79
2021/08/27 04:31:42;;;;;;;3.60;3.27;;;17.20;99.90;;;;;;5074779;28;20615;-80
2021/08/27 04:34:10;;;;;;;4.13;3.00;;;17.20;59.50;;;;;;5075202;28;20556;-78
2021/08/27 04:36:38;;;;;;;4.60;2.90;;;17.20;86.00;;;;;;5078192;28;20519;-81
2021/08/27 04:39:06;;;;;;;3.30;3.00;;;17.20;99.90;;;;;;5068717;28;20872;-78
2021/08/27 04:41:35;;;;;;;6.40;3.07;;;17.10;99.90;;;;;;5076482;28;20512;-80
2021/08/27 04:44:03;;;;;;;4.13;3.13;;;17.10;99.90;;;;;;5064001;28;20476;-80
2021/08/27 04:46:33;;;;;;;5.60;3.10;;;17.10;99.90;;;;;;5063004;28;20457;-80
2021/08/27 04:49:01;;;;;;;4.00;3.70;;;17.20;99.90;;;;;;5071911;28;20452;-78
2021/08/27 04:51:29;;;;;;;4.63;3.60;;;17.10;99.90;;;;;;5071309;28;20496;-80
2021/08/27 04:53:58;;;;;;;3.90;3.50;;;17.20;99.90;;;;;;5074068;28;20498;-80
2021/08/27 04:56:26;;;;;;;5.27;4.10;;;17.20;99.90;;;;;;5072244;28;20447;-80
2021/08/27 04:58:54;;;;;;;4.63;4.23;;;17.20;99.90;;;;;;5074293;28;20508;-78
2021/08/27 05:01:22;;;;;;;7.10;4.03;;;17.20;93.80;;;;;;5079405;28;20457;-80
2021/08/27 05:03:52;;;;;;;5.07;4.60;;;17.20;99.90;;;;;;5074173;28;20470;-80
2021/08/27 05:06:20;;;;;;;5.50;5.00;;;17.20;52.90;;;;;;5080359;28;20481;-81
2021/08/27 05:08:49;;;;;;;4.80;4.33;;;17.20;99.90;;;;;;5077459;28;20557;-81
2021/08/27 05:11:17;;;;;;;4.57;3.40;;;17.20;41.70;;;;;;5052112;28;20482;-82
2021/08/27 05:13:45;;;;;;;4.50;3.50;;;17.20;74.10;;;;;;5070166;28;20507;-82
2021/08/27 05:16:13;;;;;;;3.87;3.30;;;17.20;60.50;;;;;;5076539;28;20457;-82
2021/08/27 05:18:41;;;;;;;4.27;3.73;;;17.20;60.10;;;;;;5077127;28;20511;-82
2021/08/27 05:21:14;;;;;;;4.50;4.03;;;17.20;71.80;;;;;;5080224;28;20449;-81
2021/08/27 05:23:42;;;;;;;4.33;3.80;;;17.10;99.90;;;;;;5075904;28;20509;-79
2021/08/27 05:26:11;;;;;;;4.43;4.03;;;17.20;76.80;;;;;;5079861;28;20472;-80
2021/08/27 05:28:39;;;;;;;5.10;3.90;;;17.20;59.70;;;;;;5074381;28;20495;-82
2021/08/27 05:31:09;;;;;;;6.10;4.20;;;17.20;36.60;;;;;;5073012;28;20503;-82
2021/08/27 05:33:38;;;;;;;3.80;3.40;;;17.20;1.00;;;;;;5067875;28;20473;-80
2021/08/27 05:36:06;;;;;;;5.33;4.80;;;17.20;30.60;;;;;;5066441;28;20995;-80
2021/08/27 05:38:36;;;;;;;7.60;6.00;;;17.20;33.70;;;;;;5087090;28;20535;-80
2021/08/27 05:41:04;;;;;;;7.23;5.17;;;17.20;1.00;;;;;;5077744;28;20466;-82
2021/08/27 05:43:33;;;;;;;8.10;5.60;;;17.20;9.50;;;;;;5072964;28;20469;-81
2021/08/27 05:46:01;;;;;;;7.60;6.00;;;17.20;1.00;;;;;;5053540;28;20524;-83
2021/08/27 05:48:30;;;;;;;6.10;5.57;;;17.20;13.30;;;;;;5058229;28;20460;-84
2021/08/27 05:50:58;;;;;;;5.50;5.00;;;17.20;8.60;;;;;;5073912;28;20703;-82
2021/08/27 05:53:26;;;;;;;5.90;5.30;;;17.20;55.80;;;;;;5069763;28;21003;-82
2021/08/27 05:55:56;;;;;;;6.60;5.00;;;17.20;4.10;;;;;;5050139;28;20977;-83
2021/08/27 05:58:24;;;;;;;7.17;5.60;;;17.20;3.30;;;;;;5071938;28;20514;-83
2021/08/27 06:00:52;;;;;;;6.47;4.50;;;17.20;20.90;;;;;;5056926;28;20444;-80
2021/08/27 06:03:20;;;;;;;5.50;4.70;;;17.30;10.90;;;;;;5078699;28;21089;-82
2021/08/27 06:05:49;;;;;;;6.57;4.67;;;17.20;99.90;;;;;;5077243;28;20894;-81
2021/08/27 06:08:17;;;;;;;6.03;4.80;;;17.10;99.90;;;;;;5079295;28;20448;-72
2021/08/27 06:10:45;;;;;;;5.67;4.70;;;17.00;99.90;;;;;;5067201;28;20449;-72
2021/08/27 06:13:14;;;;;;;4.90;4.50;;;16.90;99.90;;;;;;5077542;28;20467;-73
2021/08/27 06:15:44;;;;;;;7.67;5.03;;;16.70;1.00;;;;;;5074047;28;20446;-73
2021/08/27 06:18:13;;;;;;;4.90;4.17;;;16.70;99.90;;;;;;5074228;28;20484;-83
2021/08/27 06:20:41;;;;;;;4.43;4.07;;;16.80;99.90;;;;;;5077834;28;21016;-85
2021/08/27 06:23:10;;;;;;;6.40;3.83;;;16.90;99.90;;;;;;5077371;28;20466;-84
2021/08/27 06:25:39;;;;;;;5.03;3.80;;;17.10;48.30;;;;;;5058342;28;20480;-83
2021/08/27 06:28:07;;;;;;;4.00;3.70;;;17.00;28.00;;;;;;5080998;28;20502;-84
2021/08/27 06:30:37;;;;;;;3.47;3.27;;;17.10;1.00;;;;;;5071210;28;20447;-84
2021/08/27 06:33:05;;;;;;;5.23;4.50;;;17.20;16.40;;;;;;5060539;28;21072;-83
2021/08/27 06:35:33;;;;;;;3.87;3.10;;;17.20;1.40;;;;;;5065538;28;20440;-84
2021/08/27 06:40:49;;;;;;;3.47;3.10;;;17.30;1.00;;;;;;5070160;28;20448;-81
2021/08/27 06:43:17;;;;;;;6.10;3.30;;;17.30;99.90;;;;;;5078757;28;20504;-81
2021/08/27 06:45:47;;;;;;;3.43;3.13;;;17.30;99.90;;;;;;5063482;28;20539;-80
2021/08/27 06:48:15;;;;;;;6.57;4.07;;;17.30;1.00;;;;;;5062811;28;20841;-82
2021/08/27 06:50:43;;;;;;;4.27;3.50;;;17.40;1.00;;;;;;5076102;28;20445;-82
2021/08/27 06:53:11;;;;;;;2.80;2.60;;;17.40;1.00;;;;;;5076163;28;20457;-83
2021/08/27 06:55:40;;;;;;;4.00;2.83;;;17.50;1.00;;;;;;5077651;28;20436;-82
2021/08/27 06:58:08;;;;;;;5.20;3.57;;;17.40;1.00;;;;;;5070380;28;20447;-83
2021/08/27 07:00:36;;;;;;;3.07;2.87;;;17.50;1.00;;;;;;5070967;28;20437;-82
2021/08/27 07:03:06;;;;;;;3.60;3.00;;;17.40;1.00;;;;;;5071931;28;20488;-82
2021/08/27 07:05:35;;;;;;;3.30;2.70;;;17.50;1.00;;;;;;5064504;28;20480;-82
2021/08/27 07:08:04;;;;;;;3.87;3.37;;;17.50;1.00;;;;;;5073091;28;20462;-82
2021/08/27 07:10:32;;;;;;;3.10;1.97;;;17.40;1.00;;;;;;5072588;28;20468;-82
2021/08/27 07:13:01;;;;;;;3.50;2.67;;;17.50;1.00;;;;;;5076361;28;20522;-83
2021/08/27 07:15:30;;;;;;;3.60;2.83;;;17.60;1.00;;;;;;5060373;28;20450;-83
2021/08/27 07:17:58;;;;;;;3.57;3.07;;;17.60;1.00;;;;;;5074753;28;20449;-83
2021/08/27 07:20:29;;;;;;;2.57;2.30;;;17.60;1.00;;;;;;5074656;28;20466;-83
2021/08/27 07:22:57;;;;;;;2.53;2.33;;;17.70;1.00;;;;;;5071078;28;21150;-83
2021/08/27 07:25:26;;;;;;;2.30;2.10;;;17.70;1.00;;;;;;5072211;28;20498;-82
2021/08/27 07:27:54;;;;;;;2.80;2.60;;;17.70;1.00;;;;;;5072384;28;20468;-83
2021/08/27 07:30:22;;;;;;;3.33;2.57;;;17.80;1.00;;;;;;5075864;28;20475;-83
2021/08/27 07:32:50;;;;;;;2.77;2.10;;;17.80;1.00;;;;;;5058887;28;20470;-83
2021/08/27 07:35:19;;;;;;;3.00;2.30;;;17.80;1.00;;;;;;5077463;28;20477;-83
2021/08/27 07:37:49;;;;;;;3.87;2.47;;;17.90;1.00;;;;;;5071577;28;20452;-83
2021/08/27 07:40:18;;;;;;;2.13;1.93;;;18.00;1.00;;;;;;5076446;28;20466;-84
2021/08/27 07:42:46;;;;;;;2.10;2.00;;;18.00;1.00;;;;;;5055640;28;20473;-80
2021/08/27 07:45:16;;;;;;;4.00;2.10;;;18.10;1.00;;;;;;5073122;28;20475;-83
2021/08/27 07:47:45;;;;;;;2.03;1.80;;;18.10;1.00;;;;;;5075410;28;20466;-83
2021/08/27 07:50:15;;;;;;;3.20;1.80;;;18.20;1.00;;;;;;5078853;28;20930;-83
2021/08/27 07:52:43;;;;;;;1.53;1.40;;;18.30;1.00;;;;;;5075548;28;20442;-83
2021/08/27 07:55:13;;;;;;;3.00;1.80;;;18.40;1.00;;;;;;5076664;28;20481;-83
2021/08/27 07:57:43;;;;;;;3.00;1.60;;;18.50;1.00;;;;;;5087243;28;20856;-83
2021/08/27 08:00:12;;;;;;;1.87;1.53;;;18.50;99.90;;;;;;5077470;28;20446;-82
2021/08/27 08:02:40;;;;;;;3.07;1.77;;;18.60;99.90;;;;;;5072541;28;20957;-84
2021/08/27 08:05:10;;;;;;;1.70;1.27;;;18.70;99.90;;;;;;5075530;28;20474;-84
2021/08/27 08:07:38;;;;;;;1.10;1.00;;;18.70;99.90;;;;;;5070154;28;20905;-83
2021/08/27 08:10:08;;;;;;;4.50;1.20;;;18.70;99.90;;;;;;5063862;28;20454;-83
2021/08/27 08:12:37;;;;;;;1.10;1.00;;;18.70;99.90;;;;;;5067381;28;20473;-82
2021/08/27 08:15:06;;;;;;;1.73;1.10;;;18.80;99.90;;;;;;5079098;28;20473;-83
2021/08/27 08:17:35;;;;;;;1.83;1.00;;;18.90;99.90;;;;;;5072611;28;20493;-83
2021/08/27 08:20:04;;;;;;;1.80;1.03;;;18.90;99.90;;;;;;5076196;28;20802;-83
2021/08/27 08:22:33;;;;;;;1.60;1.03;;;18.90;99.90;;;;;;5055006;28;20466;-83
2021/08/27 08:25:01;;;;;;;1.63;1.30;;;18.90;99.90;;;;;;5064788;28;20470;-82
2021/08/27 08:27:33;;;;;;;1.00;1.00;;;18.90;99.90;;;;;;5073987;28;20487;-84
2021/08/27 08:30:04;;;;;;;1.23;1.00;;;18.80;99.90;;;;;;5057266;28;20457;-82
2021/08/27 08:32:33;;;;;;;1.77;0.90;;;18.70;99.90;;;;;;5078432;28;20451;-84
2021/08/27 08:35:03;;;;;;;1.23;1.10;;;18.70;99.90;;;;;;5075015;28;21020;-83
2021/08/27 08:37:31;;;;;;;1.17;1.07;;;18.70;99.90;;;;;;5075084;28;20449;-83
2021/08/27 08:39:59;;;;;;;1.53;1.00;;;18.70;99.90;;;;;;5065888;28;20454;-83
2021/08/27 08:42:27;;;;;;;1.00;1.00;;;18.80;99.90;;;;;;5069807;28;21011;-83
2021/08/27 08:44:56;;;;;;;1.93;0.97;;;18.80;99.90;;;;;;5069992;28;20479;-83
2021/08/27 08:47:28;;;;;;;2.50;1.73;;;18.90;99.90;;;;;;5070716;28;20508;-81
2021/08/27 08:49:58;;;;;;;0.90;0.87;;;19.10;99.90;;;;;;5071994;28;20946;-80
2021/08/27 08:52:28;;;;;;;1.00;0.90;;;19.20;99.90;;;;;;5072022;28;20446;-80
2021/08/27 08:54:56;;;;;;;3.73;1.10;;;19.20;99.90;;;;;;5066143;28;20542;-81
2021/08/27 08:57:24;;;;;;;2.63;1.10;;;19.30;99.90;;;;;;5073284;28;20461;-81
2021/08/27 08:59:53;;;;;;;0.97;0.90;;;19.40;99.90;;;;;;5049845;28;20443;-82
2021/08/27 09:02:22;;;;;;;2.13;1.10;;;19.40;99.90;;;;;;5069670;28;20450;-80
2021/08/27 09:04:52;;;;;;;2.60;1.40;;;19.40;99.90;;;;;;5069732;28;20493;-81
2021/08/27 09:07:20;;;;;;;1.47;0.97;;;19.40;99.90;;;;;;5070278;28;20477;-81
2021/08/27 09:09:48;;;;;;;2.67;1.10;;;19.40;99.90;;;;;;5076270;28;20467;-81
2021/08/27 09:12:19;;;;;;;7.20;1.43;;;19.30;99.90;;;;;;5069238;28;20447;-81
2021/08/27 09:14:59;;;;;;;1.30;1.20;;;19.40;99.90;;;;;;5058852;28;20544;-80
2021/08/27 09:17:32;;;;;;;1.30;1.00;;;19.50;99.90;;;;;;5081299;28;20502;-81
2021/08/27 09:20:04;;;;;;;1.03;0.93;;;19.50;99.90;;;;;;5075183;28;20512;-80
2021/08/27 09:22:48;;;;;;;1.13;1.00;;;19.60;99.90;;;;;;5082894;28;20469;-79
2021/08/27 09:25:18;;;;;;;2.00;1.00;;;19.70;99.90;;;;;;5070862;28;20506;-80
2021/08/27 09:28:17;;;;;;;1.30;1.20;;;19.70;99.90;;;;;;5054039;28;21026;-80
2021/08/27 09:30:54;;;;;;;1.27;1.07;;;19.80;99.90;;;;;;5076005;28;20439;-79
2021/08/27 09:33:24;;;;;;;1.53;0.97;;;19.90;99.90;;;;;;5062498;28;20442;-81
2021/08/27 09:35:59;;;;;;;1.97;0.90;;;19.90;99.90;;;;;;5082365;28;20458;-80
2021/08/27 09:38:29;;;;;;;0.90;0.90;;;20.00;99.90;;;;;;5087251;28;20453;-80
2021/08/27 09:41:02;;;;;;;2.83;1.20;;;20.00;99.90;;;;;;5068713;28;20454;-81
2021/08/27 09:43:30;;;;;;;1.50;1.40;;;20.00;99.90;;;;;;5073915;28;20472;-81
2021/08/27 09:45:59;;;;;;;1.40;1.30;;;19.80;99.90;;;;;;5081933;28;20447;-83
2021/08/27 09:48:38;;;;;;;1.37;1.20;;;19.80;99.90;;;;;;5063712;28;20469;-81
2021/08/27 09:51:07;;;;;;;1.23;1.00;;;19.70;99.90;;;;;;5074807;28;20456;-83
2021/08/27 09:53:43;;;;;;;1.37;1.20;;;19.60;99.90;;;;;;5079887;28;20537;-81
2021/08/27 09:56:11;;;;;;;2.63;1.20;;;19.60;99.90;;;;;;5070306;28;20508;-83
2021/08/27 09:58:52;;;;;;;1.47;1.37;;;19.60;99.90;;;;;;5063190;28;20476;-83
2021/08/27 10:01:21;;;;;;;1.30;1.20;;;19.70;99.90;;;;;;5087159;28;20458;-83
2021/08/27 10:04:04;;;;;;;2.13;1.10;;;19.60;99.90;;;;;;5085615;28;20568;-83
2021/08/27 10:06:34;;;;;;;1.20;1.10;;;19.70;99.90;;;;;;5053379;28;20856;-83
2021/08/27 10:09:02;;;;;;;8.23;2.20;;;19.70;99.90;;;;;;5070107;28;20482;-82
2021/08/27 10:11:32;;;;;;;4.00;1.20;;;19.60;99.90;;;;;;5082387;28;20865;-83
2021/08/27 10:14:00;;;;;;;1.50;1.20;;;19.80;99.90;;;;;;5078440;28;20491;-80
2021/08/27 10:16:30;;;;;;;1.47;1.37;;;19.90;99.90;;;;;;5073127;28;20523;-84
2021/08/27 10:18:59;;;;;;;1.60;1.23;;;19.90;99.90;;;;;;5059235;28;20644;-83
2021/08/27 10:21:30;;;;;;;1.97;1.70;;;19.90;99.90;;;;;;5093248;28;20454;-83
2021/08/27 10:23:59;;;;;;;1.50;1.40;;;19.80;99.90;;;;;;5068680;28;20486;-82
2021/08/27 10:26:28;;;;;;;1.53;1.20;;;19.80;99.90;;;;;;5092180;28;20449;-82
2021/08/27 10:29:05;;;;;;;2.10;1.17;;;19.80;99.90;;;;;;5089867;28;20548;-82
2021/08/27 10:31:52;;;;;;;1.43;1.10;;;19.80;99.90;;;;;;5082339;28;20464;-82
2021/08/27 10:34:40;;;;;;;1.40;1.20;;;19.70;99.90;;;;;;5080577;28;21019;-82
2021/08/27 10:37:08;;;;;;;1.50;1.10;;;19.70;99.90;;;;;;5076987;28;20985;-82
2021/08/27 10:39:46;;;;;;;1.23;1.13;;;19.70;99.90;;;;;;5088121;28;20446;-82
2021/08/27 10:42:47;;;;;;;3.67;1.60;;;19.80;99.90;;;;;;5074883;28;20500;-82
2021/08/27 10:45:16;;;;;;;2.77;1.00;;;19.80;99.90;;;;;;5084181;28;20466;-83
2021/08/27 10:48:11;;;;;;;1.70;1.23;;;19.80;99.90;;;;;;5071991;28;20478;-82
2021/08/27 10:50:40;;;;;;;2.03;1.00;;;19.70;99.90;;;;;;5079154;28;20518;-82
2021/08/27 10:53:30;;;;;;;2.57;1.10;;;19.70;99.90;;;;;;5086479;28;20458;-82
2021/08/27 10:56:01;;;;;;;1.83;1.30;;;19.80;99.90;;;;;;5073693;28;20950;-83
2021/08/27 10:58:44;;;;;;;1.57;1.00;;;19.90;99.90;;;;;;5086841;28;20456;-82
2021/08/27 11:01:27;;;;;;;1.93;1.20;;;19.90;99.90;;;;;;5088202;28;20449;-83
2021/08/27 11:04:03;;;;;;;4.70;1.00;;;20.00;99.90;;;;;;5074752;28;20474;-83
2021/08/27 11:06:32;;;;;;;1.97;1.13;;;20.10;99.90;;;;;;5072195;28;20450;-83
2021/08/27 11:09:21;;;;;;;1.07;0.97;;;20.10;99.90;;;;;;5063788;28;20569;-83
2021/08/27 11:12:09;;;;;;;1.33;0.90;;;20.00;99.90;;;;;;5081104;28;20434;-83
2021/08/27 11:14:38;;;;;;;2.53;0.80;;;20.10;99.90;;;;;;5056773;28;20539;-81
2021/08/27 11:17:07;;;;;;;1.90;0.90;;;20.00;99.90;;;;;;5084728;28;20473;-83
2021/08/27 11:19:37;;;;;;;1.00;1.00;;;20.00;99.90;;;;;;5071644;28;20446;-83
2021/08/27 11:22:26;;;;;;;2.60;1.00;;;20.10;99.90;;;;;;5084163;28;20988;-84
2021/08/27 11:25:22;;;;;;;1.00;0.93;;;20.10;99.90;;;;;;5078665;28;21167;-83
2021/08/27 11:28:15;;;;;;;1.10;0.93;;;20.00;99.90;;;;;;5077849;28;20477;-83
2021/08/27 11:30:48;;;;;;;1.33;1.00;;;20.00;99.90;;;;;;5087450;28;20507;-81
2021/08/27 11:33:56;;;;;;;3.10;1.53;;;20.00;99.90;;;;;;5088512;28;20454;-81
2021/08/27 11:36:24;;;;;;;0.97;0.90;;;20.00;99.90;;;;;;5083363;28;22424;-82
2021/08/27 11:38:56;;;;;;;1.77;0.90;;;20.00;99.90;;;;;;5083647;28;20454;-81
2021/08/27 11:41:25;;;;;;;2.47;1.00;;;20.00;99.90;;;;;;5084527;28;20454;-81
2021/08/27 11:44:12;;;;;;;2.30;0.90;;;20.00;99.90;;;;;;5066515;28;20466;-82
2021/08/27 11:46:49;;;;;;;1.70;1.10;;;20.10;99.90;;;;;;5073064;28;20459;-82
2021/08/27 11:49:23;;;;;;;2.33;1.60;;;20.10;99.90;;;;;;5086949;28;20475;-81
2021/08/27 11:52:10;;;;;;;1.53;1.23;;;20.10;99.90;;;;;;5061980;28;20508;-80
2021/08/27 11:54:38;;;;;;;2.03;1.23;;;20.20;99.90;;;;;;5071771;28;20466;-83
2021/08/27 11:57:18;;;;;;;2.33;1.10;;;20.20;99.90;;;;;;5074873;28;20511;-84
2021/08/27 11:59:48;;;;;;;1.13;1.07;;;20.20;99.90;;;;;;5070223;28;20512;-83
2021/08/27 12:02:21;;;;;;;3.13;1.20;;;20.10;99.90;;;;;;5071221;28;21225;-83
2021/08/27 12:04:58;;;;;;;2.07;1.10;;;20.20;99.90;;;;;;5070454;28;20522;-83
2021/08/27 12:07:29;;;;;;;1.20;1.13;;;20.30;99.90;;;;;;5067427;28;20863;-82
2021/08/27 12:10:14;;;;;;;1.20;1.10;;;20.30;99.90;;;;;;5072029;28;20493;-83
2021/08/27 12:12:45;;;;;;;1.53;1.00;;;20.30;99.90;;;;;;5073309;28;22011;-84
2021/08/27 12:15:16;;;;;;;1.87;1.13;;;20.40;99.90;;;;;;5078826;28;20981;-83
2021/08/27 12:17:56;;;;;;;3.93;1.00;;;20.50;99.90;;;;;;5074786;28;20790;-83
2021/08/27 12:20:26;;;;;;;1.60;1.50;;;20.50;99.90;;;;;;5072874;28;20522;-83
2021/08/27 12:23:00;;;;;;;4.20;1.20;;;20.60;99.90;;;;;;5089867;28;20980;-83
2021/08/27 12:25:31;;;;;;;2.03;1.20;;;20.60;99.90;;;;;;5060108;28;20463;-84
2021/08/27 12:28:19;;;;;;;1.20;1.10;;;20.70;99.90;;;;;;5079530;28;20465;-83
2021/08/27 12:30:53;;;;;;;1.67;1.10;;;20.80;99.90;;;;;;5074663;28;21009;-83
2021/08/27 12:33:22;;;;;;;1.30;1.20;;;20.80;99.90;;;;;;5077091;28;20552;-82
2021/08/27 12:35:50;;;;;;;1.10;1.00;;;20.80;99.90;;;;;;5077435;28;20453;-82
2021/08/27 12:38:19;;;;;;;1.00;0.90;;;20.90;99.90;;;;;;5075052;28;20445;-83
2021/08/27 12:40:48;;;;;;;1.87;1.00;;;20.90;99.90;;;;;;5068506;28;20461;-82
2021/08/27 12:43:22;;;;;;;1.23;1.03;;;20.90;99.90;;;;;;5070970;28;20512;-83
2021/08/27 12:45:53;;;;;;;1.27;1.10;;;20.90;99.90;;;;;;5066699;28;20496;-83
2021/08/27 12:48:23;;;;;;;1.60;1.00;;;21.00;99.90;;;;;;5070315;28;20525;-83
2021/08/27 12:50:53;;;;;;;1.67;1.10;;;21.00;99.90;;;;;;5081744;28;20999;-83
2021/08/27 12:53:30;;;;;;;1.00;1.00;;;21.10;99.90;;;;;;5054325;28;20468;-83
2021/08/27 12:56:10;;;;;;;3.13;1.20;;;21.10;99.90;;;;;;5050849;28;20450;-83
2021/08/27 12:58:38;;;;;;;1.60;0.90;;;21.20;99.90;;;;;;5076457;28;20455;-84
2021/08/27 13:01:16;;;;;;;1.07;0.97;;;21.20;99.90;;;;;;5089125;28;20461;-83
2021/08/27 13:03:47;;;;;;;1.70;1.10;;;21.20;99.90;;;;;;5081946;28;20474;-83
2021/08/27 13:06:36;;;;;;;1.10;0.90;;;21.20;99.90;;;;;;5077227;28;20479;-82
2021/08/27 13:09:07;;;;;;;1.00;0.90;;;21.30;99.90;;;;;;5071279;28;20534;-81
2021/08/27 13:11:49;;;;;;;2.70;0.90;;;21.30;99.90;;;;;;5072064;28;20450;-82
2021/08/27 13:14:23;;;;;;;1.10;1.00;;;21.30;99.90;;;;;;5074190;28;20479;-82